Terminal Aerodrome Forecast
Issued by NWS

Home | Current Version | Previous Version | Text Only | Print | Product List | Glossary On
Versions: 1 2 3 4 5 6 7 8 9 10 11 12 13 14 15 16 17 18 19 20
047
FTUS43 KTOP 270156 AAA
TAFMHK
TAF AMD
KMHK 270156Z 2702/2724 05006KT P6SM SCT015 BKN100
      TEMPO 2702/2705 BKN015
     FM270900 01006KT P6SM SCT008 BKN015
     FM271800 02010KT P6SM SCT035=

USA.gov is the U.S. government's official web portal to all federal, state and local government web resources and services.